createdAt,value
2023-03-13T00:01:14.768Z,71.03
2023-03-13T00:03:41.734Z,70.48
2023-03-13T00:06:08.936Z,70.21
2023-03-13T00:08:35.793Z,70.64
2023-03-13T00:11:07.549Z,70.78
2023-03-13T00:13:34.470Z,71.18
2023-03-13T00:16:10.369Z,70.98
2023-03-13T00:18:37.505Z,70.32
2023-03-13T00:21:09.066Z,69.61
2023-03-13T00:23:37.655Z,70.66
2023-03-13T00:26:06.981Z,70.27
2023-03-13T00:28:34.870Z,70.95
2023-03-13T00:31:02.516Z,70.86
2023-03-13T00:33:29.364Z,71.30
2023-03-13T00:36:04.412Z,70.91
2023-03-13T00:38:31.552Z,70.44
2023-03-13T00:40:59.693Z,71.08
2023-03-13T00:43:27.313Z,70.73
2023-03-13T00:45:54.079Z,71.60
2023-03-13T00:48:21.204Z,71.03
2023-03-13T00:50:47.913Z,71.12
2023-03-13T00:53:15.064Z,70.76
2023-03-13T00:55:59.589Z,71.31
2023-03-13T00:58:29.146Z,71.18
2023-03-13T01:00:56.153Z,70.58
2023-03-13T01:03:25.774Z,69.95
2023-03-13T01:06:00.063Z,70.90
2023-03-13T01:08:28.110Z,71.41
2023-03-13T01:11:01.059Z,70.82
2023-03-13T01:13:35.022Z,71.12
2023-03-13T01:16:06.851Z,70.34
2023-03-13T01:18:34.822Z,70.90
2023-03-13T01:21:01.926Z,70.23
2023-03-13T01:23:29.041Z,70.48
2023-03-13T01:25:56.448Z,70.39
2023-03-13T01:28:25.165Z,70.19
2023-03-13T01:30:52.316Z,69.42
2023-03-13T01:33:19.378Z,70.15
2023-03-13T01:35:47.695Z,70.26
2023-03-13T01:38:14.861Z,69.94
2023-03-13T01:40:46.690Z,70.35
2023-03-13T01:43:26.577Z,69.83
2023-03-13T01:46:02.506Z,69.66
2023-03-13T01:49:04.901Z,69.94
2023-03-13T01:51:50.403Z,69.69
2023-03-13T01:54:25.695Z,70.26
2023-03-13T01:57:06.071Z,70.34
2023-03-13T01:59:43.561Z,69.96
2023-03-13T02:02:11.648Z,70.38
2023-03-13T02:04:42.873Z,70.17
2023-03-13T02:07:16.172Z,70.51
2023-03-13T02:09:49.295Z,70.35
2023-03-13T02:12:24.242Z,70.94
2023-03-13T02:14:51.908Z,70.78
2023-03-13T02:17:18.770Z,70.80
2023-03-13T02:19:51.948Z,71.76
2023-03-13T02:22:39.203Z,71.25
2023-03-13T02:25:22.971Z,71.25
2023-03-13T02:28:16.919Z,71.70
2023-03-13T02:30:45.779Z,72.13
2023-03-13T02:33:14.311Z,72.18
2023-03-13T02:35:43.176Z,72.79
2023-03-13T02:38:16.932Z,72.56
2023-03-13T02:40:47.888Z,73.13
2023-03-13T02:43:31.043Z,72.60
2023-03-13T02:46:08.098Z,72.56
2023-03-13T02:48:41.068Z,72.86
2023-03-13T02:51:31.616Z,73.04
2023-03-13T02:54:10.406Z,73.65
2023-03-13T02:56:40.812Z,73.66
2023-03-13T02:59:08.804Z,74.03
2023-03-13T03:01:39.121Z,74.31
2023-03-13T03:04:06.629Z,75.10
2023-03-13T03:06:33.452Z,74.85
2023-03-13T03:09:03.120Z,75.35
2023-03-13T03:11:33.150Z,75.81
2023-03-13T03:14:05.342Z,76.09
2023-03-13T03:16:37.137Z,76.66
2023-03-13T03:19:08.933Z,77.18
2023-03-13T03:21:35.744Z,77.46
2023-03-13T03:24:03.609Z,77.78
2023-03-13T03:26:30.449Z,78.18
2023-03-13T03:28:57.414Z,78.81
2023-03-13T03:31:24.473Z,80.27
2023-03-13T03:33:51.582Z,81.30
2023-03-13T03:36:22.275Z,82.09
2023-03-13T03:38:50.355Z,84.00
2023-03-13T03:41:20.150Z,84.87
2023-03-13T03:43:47.771Z,85.62
2023-03-13T03:46:17.663Z,87.55
2023-03-13T03:48:44.409Z,88.95
2023-03-13T03:51:13.105Z,89.61
2023-03-13T03:53:42.552Z,90.07
2023-03-13T03:56:09.703Z,90.84
2023-03-13T03:58:41.245Z,91.41
2023-03-13T04:01:28.258Z,92.97
2023-03-13T04:03:54.893Z,93.26
2023-03-13T04:06:21.793Z,94.31
2023-03-13T04:08:49.316Z,94.77
2023-03-13T04:11:20.099Z,95.54
2023-03-13T04:13:50.291Z,96.13
2023-03-13T04:16:17.561Z,96.70
2023-03-13T04:18:45.752Z,97.28
2023-03-13T04:21:12.514Z,98.14
2023-03-13T04:23:46.689Z,98.83
2023-03-13T04:26:14.546Z,99.56
2023-03-13T04:28:41.911Z,99.62
2023-03-13T04:31:10.809Z,100.00
2023-03-13T04:33:53.616Z,100.00
2023-03-13T04:36:33.807Z,100.00
2023-03-13T04:39:26.886Z,100.00
2023-03-13T04:42:29.698Z,100.00
2023-03-13T04:45:12.425Z,100.00
2023-03-13T04:47:52.149Z,100.00
2023-03-13T04:50:42.148Z,100.00
2023-03-13T04:53:21.596Z,100.00
2023-03-13T04:56:04.781Z,100.00
2023-03-13T04:58:44.184Z,100.00
2023-03-13T05:01:33.531Z,100.00
2023-03-13T05:04:22.816Z,100.00
2023-03-13T05:06:55.176Z,99.46
2023-03-13T05:09:40.459Z,99.40
2023-03-13T05:12:30.398Z,100.00
2023-03-13T05:15:13.181Z,100.00
2023-03-13T05:18:08.663Z,99.79
2023-03-13T05:20:42.228Z,99.99
2023-03-13T05:23:19.607Z,98.97
2023-03-13T05:26:00.161Z,98.60
2023-03-13T05:28:41.003Z,98.32
2023-03-13T05:31:25.186Z,98.34
2023-03-13T05:34:15.424Z,97.85
2023-03-13T05:37:00.596Z,97.39
2023-03-13T05:39:50.336Z,96.94
2023-03-13T05:42:36.289Z,97.04
2023-03-13T05:45:22.531Z,96.76
2023-03-13T05:48:03.659Z,96.05
2023-03-13T05:50:48.979Z,97.10
2023-03-13T05:53:41.800Z,97.46
2023-03-13T05:56:23.071Z,97.05
2023-03-13T05:58:58.714Z,96.45
2023-03-13T06:01:43.819Z,96.42
2023-03-13T06:04:20.782Z,97.19
2023-03-13T06:06:48.075Z,97.66
2023-03-13T06:09:16.280Z,98.26
2023-03-13T06:11:44.502Z,97.69
2023-03-13T06:14:11.249Z,97.63
2023-03-13T06:17:05.420Z,98.08
2023-03-13T06:19:32.526Z,98.47
2023-03-13T06:21:59.144Z,98.65
2023-03-13T06:24:25.824Z,99.83
2023-03-13T06:26:52.473Z,99.65
2023-03-13T06:29:19.373Z,100.00
2023-03-13T06:31:46.177Z,100.00
2023-03-13T06:34:13.957Z,99.80
2023-03-13T06:36:40.817Z,99.71
2023-03-13T06:39:08.340Z,99.64
2023-03-13T06:41:35.382Z,99.81
2023-03-13T06:44:02.412Z,99.94
2023-03-13T06:46:29.419Z,100.00
2023-03-13T06:48:58.092Z,99.55
2023-03-13T06:51:26.277Z,100.00
2023-03-13T06:53:53.057Z,99.10
2023-03-13T06:56:21.627Z,98.82
2023-03-13T06:58:49.468Z,98.73
2023-03-13T07:01:17.695Z,98.77
2023-03-13T07:03:44.527Z,99.20
2023-03-13T07:06:12.440Z,99.06
2023-03-13T07:08:39.565Z,98.10
2023-03-13T07:11:08.767Z,98.70
2023-03-13T07:13:36.139Z,98.42
2023-03-13T07:16:08.288Z,98.05
2023-03-13T07:18:36.168Z,98.11
2023-03-13T07:21:07.174Z,98.80
2023-03-13T07:23:35.732Z,98.88
2023-03-13T07:26:08.266Z,98.22
2023-03-13T07:28:37.689Z,98.04
2023-03-13T07:31:19.670Z,98.53
2023-03-13T07:33:46.556Z,98.79
2023-03-13T07:36:15.280Z,98.99
2023-03-13T07:38:43.728Z,98.59
2023-03-13T07:41:13.255Z,97.78
2023-03-13T07:43:40.028Z,98.09
2023-03-13T07:46:08.220Z,97.96
2023-03-13T07:48:37.631Z,97.76
2023-03-13T07:51:06.800Z,97.09
2023-03-13T07:53:34.098Z,97.24
2023-03-13T07:56:04.346Z,96.81
2023-03-13T07:58:34.265Z,97.30
2023-03-13T08:01:01.710Z,96.55
2023-03-13T08:03:30.056Z,96.31
2023-03-13T08:06:01.221Z,95.85
2023-03-13T08:08:28.861Z,95.57
2023-03-13T08:11:07.575Z,95.34
2023-03-13T08:13:35.581Z,94.80
2023-03-13T08:16:09.148Z,94.46
2023-03-13T08:18:37.800Z,93.71
2023-03-13T08:21:06.713Z,93.25
2023-03-13T08:23:36.164Z,92.38
2023-03-13T08:26:15.025Z,91.62
2023-03-13T08:28:43.561Z,91.11
2023-03-13T08:31:15.916Z,90.93
2023-03-13T08:33:43.971Z,90.65
2023-03-13T08:36:15.626Z,91.17
2023-03-13T08:38:45.867Z,90.58
2023-03-13T08:41:14.964Z,90.10
2023-03-13T08:43:42.056Z,90.05
2023-03-13T08:46:08.813Z,89.60
2023-03-13T08:48:35.712Z,89.76
2023-03-13T08:51:05.027Z,89.25
2023-03-13T08:53:32.641Z,89.22
2023-03-13T08:56:00.087Z,89.41
2023-03-13T08:58:27.887Z,89.12
2023-03-13T09:00:55.239Z,89.65
2023-03-13T09:03:22.130Z,89.82
2023-03-13T09:05:55.904Z,89.84
2023-03-13T09:08:23.411Z,89.85
2023-03-13T09:10:56.501Z,89.80
2023-03-13T09:13:24.026Z,90.08
2023-03-13T09:16:01.559Z,90.13
2023-03-13T09:18:29.300Z,90.07
2023-03-13T09:20:55.965Z,90.37
2023-03-13T09:23:23.427Z,90.76
2023-03-13T09:25:53.752Z,90.78
2023-03-13T09:28:20.473Z,90.50
2023-03-13T09:30:47.209Z,90.83
2023-03-13T09:33:13.906Z,90.73
2023-03-13T09:35:40.803Z,90.01
2023-03-13T09:38:08.075Z,89.80
2023-03-13T09:41:05.739Z,89.86
2023-03-13T09:43:49.067Z,89.77
2023-03-13T09:46:25.536Z,89.45
2023-03-13T09:49:00.122Z,89.28
2023-03-13T09:51:30.834Z,88.80
2023-03-13T09:54:15.076Z,88.91
2023-03-13T09:56:51.477Z,88.63
2023-03-13T09:59:36.970Z,88.11
2023-03-13T10:02:14.860Z,87.31
2023-03-13T10:04:51.781Z,86.63
2023-03-13T10:07:20.864Z,85.75
2023-03-13T10:09:47.548Z,84.52
2023-03-13T10:12:21.293Z,81.33
2023-03-13T10:15:13.554Z,81.41
2023-03-13T10:17:40.612Z,81.53
2023-03-13T10:20:10.372Z,81.84
2023-03-13T10:22:38.376Z,81.82
2023-03-13T10:25:12.319Z,82.34
2023-03-13T10:27:53.583Z,82.12
2023-03-13T10:30:31.288Z,81.24
2023-03-13T10:33:26.060Z,80.40
2023-03-13T10:36:04.146Z,78.32
2023-03-13T10:38:34.302Z,78.65
2023-03-13T10:41:09.136Z,78.24
2023-03-13T10:43:35.820Z,77.37
2023-03-13T10:46:03.996Z,77.18
2023-03-13T10:48:37.181Z,76.40
2023-03-13T10:51:03.907Z,76.38
2023-03-13T10:53:30.590Z,75.79
2023-03-13T10:56:10.181Z,75.13
2023-03-13T10:58:47.471Z,74.35
2023-03-13T11:01:21.707Z,72.88
2023-03-13T11:03:50.036Z,72.92
2023-03-13T11:06:35.659Z,72.46
2023-03-13T11:09:04.415Z,72.32
2023-03-13T11:11:42.914Z,70.73
2023-03-13T11:14:16.250Z,71.68
2023-03-13T11:16:53.902Z,71.49
2023-03-13T11:19:35.839Z,72.63
2023-03-13T11:22:23.929Z,72.93
2023-03-13T11:25:02.165Z,72.25
2023-03-13T11:27:44.341Z,72.27
2023-03-13T11:30:27.419Z,71.57
2023-03-13T11:33:00.550Z,71.38
2023-03-13T11:35:36.597Z,71.54
2023-03-13T11:38:09.085Z,71.50
2023-03-13T11:41:14.826Z,71.15
2023-03-13T11:44:04.726Z,71.18
2023-03-13T11:47:03.785Z,71.43
2023-03-13T11:49:36.201Z,71.37
2023-03-13T11:52:24.251Z,71.61
2023-03-13T11:55:20.291Z,71.27
2023-03-13T11:58:02.708Z,70.87
2023-03-13T12:00:37.812Z,70.34
2023-03-13T12:03:28.818Z,70.34
2023-03-13T12:05:58.832Z,69.45
2023-03-13T12:08:31.843Z,69.25
2023-03-13T12:11:12.003Z,68.80
2023-03-13T12:13:42.379Z,68.35
2023-03-13T12:16:19.185Z,67.88
2023-03-13T12:18:46.496Z,68.11
2023-03-13T12:21:26.454Z,68.62
2023-03-13T12:24:13.313Z,68.40
2023-03-13T12:26:54.322Z,67.90
2023-03-13T12:29:55.634Z,68.21
2023-03-13T12:32:40.577Z,67.25
2023-03-13T12:35:19.558Z,67.67
2023-03-13T12:37:55.035Z,66.96
2023-03-13T12:40:32.252Z,67.12
2023-03-13T12:43:10.586Z,66.43
2023-03-13T12:45:47.241Z,66.46
2023-03-13T12:48:42.831Z,66.46
2023-03-13T12:51:46.977Z,66.43
2023-03-13T12:54:25.640Z,64.82
2023-03-13T12:57:05.522Z,63.13
2023-03-13T12:59:43.270Z,62.27
2023-03-13T13:02:27.318Z,61.72
2023-03-13T13:04:57.649Z,62.77
2023-03-13T13:07:28.387Z,62.77
2023-03-13T13:10:09.994Z,61.96
2023-03-13T13:12:41.519Z,61.98
2023-03-13T13:15:17.735Z,61.66
2023-03-13T13:17:55.286Z,62.60
2023-03-13T13:20:44.935Z,61.75
2023-03-13T13:23:37.572Z,61.64
2023-03-13T13:26:37.341Z,61.37
2023-03-13T13:29:12.922Z,61.19
2023-03-13T13:32:00.095Z,60.51
2023-03-13T13:34:34.395Z,60.39
2023-03-13T13:37:25.730Z,60.63
2023-03-13T13:39:54.218Z,60.96
2023-03-13T13:42:30.554Z,60.09
2023-03-13T13:45:21.547Z,59.53
2023-03-13T13:47:50.403Z,60.87
2023-03-13T13:50:19.874Z,60.44
2023-03-13T13:52:47.833Z,60.09
2023-03-13T13:55:26.431Z,58.34
2023-03-13T13:58:04.260Z,60.00
2023-03-13T14:00:42.777Z,60.09
2023-03-13T14:03:30.448Z,59.09
2023-03-13T14:06:22.780Z,59.91
2023-03-13T14:08:56.050Z,59.65
2023-03-13T14:11:37.893Z,58.82
2023-03-13T14:14:21.762Z,58.69
2023-03-13T14:16:57.948Z,58.79
2023-03-13T14:19:30.680Z,59.31
2023-03-13T14:22:00.399Z,59.29
2023-03-13T14:24:27.072Z,59.18
2023-03-13T14:26:53.823Z,58.72
2023-03-13T14:29:25.838Z,58.74
2023-03-13T14:31:58.271Z,58.78
2023-03-13T14:34:27.087Z,58.86
2023-03-13T14:37:14.935Z,58.72
2023-03-13T14:39:45.663Z,57.93
2023-03-13T14:42:16.020Z,57.84
2023-03-13T14:44:46.495Z,56.93
2023-03-13T14:47:16.195Z,55.92
2023-03-13T14:49:45.938Z,55.66
2023-03-13T14:52:23.936Z,56.81
2023-03-13T14:55:04.384Z,54.77
2023-03-13T14:57:32.333Z,53.87
2023-03-13T15:00:25.868Z,54.70
2023-03-13T15:03:18.814Z,53.58
2023-03-13T15:05:46.685Z,53.71
2023-03-13T15:08:15.651Z,52.92
2023-03-13T15:10:43.027Z,54.10
2023-03-13T15:13:38.219Z,52.97
2023-03-13T15:16:16.591Z,54.07
2023-03-13T15:18:43.308Z,53.11
2023-03-13T15:21:12.956Z,53.24
2023-03-13T15:23:40.980Z,54.36
2023-03-13T15:26:07.740Z,53.90
2023-03-13T15:28:34.489Z,53.87
2023-03-13T15:31:01.164Z,53.55
2023-03-13T15:33:29.302Z,54.61
2023-03-13T15:35:56.470Z,54.23
2023-03-13T15:38:25.704Z,52.90
2023-03-13T15:40:53.149Z,54.05
2023-03-13T15:43:21.465Z,55.54
2023-03-13T15:45:52.774Z,52.71
2023-03-13T15:48:31.366Z,53.99
2023-03-13T15:51:04.305Z,52.98
2023-03-13T15:53:33.473Z,51.21
2023-03-13T15:56:02.101Z,49.09
2023-03-13T15:58:29.900Z,49.83
2023-03-13T16:00:57.631Z,50.49
2023-03-13T16:03:26.842Z,50.07
2023-03-13T16:05:54.577Z,50.13
2023-03-13T16:08:34.699Z,51.32
2023-03-13T16:11:02.170Z,52.25
2023-03-13T16:13:28.794Z,53.01
2023-03-13T16:15:55.473Z,53.97
2023-03-13T16:18:24.285Z,54.64
2023-03-13T16:20:51.994Z,55.07
2023-03-13T16:23:18.593Z,56.12
2023-03-13T16:25:49.201Z,57.11
2023-03-13T16:28:16.349Z,58.11
2023-03-13T16:30:43.792Z,59.06
2023-03-13T16:33:11.235Z,60.20
2023-03-13T16:35:38.725Z,62.28
2023-03-13T16:38:08.356Z,63.70
2023-03-13T16:40:35.526Z,64.16
2023-03-13T16:43:02.295Z,64.58
2023-03-13T16:45:28.995Z,64.70
2023-03-13T16:47:55.758Z,65.24
2023-03-13T16:50:34.522Z,66.10
2023-03-13T16:53:01.501Z,67.87
2023-03-13T16:55:29.638Z,69.62
2023-03-13T16:57:58.228Z,71.51
2023-03-13T17:00:30.265Z,73.60
2023-03-13T17:02:58.103Z,76.31
2023-03-13T17:05:26.963Z,78.78
2023-03-13T17:07:54.148Z,80.82
2023-03-13T17:10:33.134Z,82.79
2023-03-13T17:13:00.370Z,84.99
2023-03-13T17:15:28.645Z,86.46
2023-03-13T17:17:56.132Z,87.51
2023-03-13T17:20:28.169Z,90.51
2023-03-13T17:22:58.720Z,91.82
2023-03-13T17:25:25.395Z,90.14
2023-03-13T17:27:52.602Z,88.15
2023-03-13T17:30:25.419Z,85.80
2023-03-13T17:32:52.297Z,84.24
2023-03-13T17:35:20.391Z,83.82
2023-03-13T17:37:48.363Z,83.50
2023-03-13T17:40:24.327Z,84.26
2023-03-13T17:42:51.358Z,85.62
2023-03-13T17:45:18.791Z,86.59
2023-03-13T17:47:45.541Z,87.10
2023-03-13T17:50:22.696Z,88.95
2023-03-13T17:52:49.514Z,89.79
2023-03-13T17:55:16.668Z,90.00
2023-03-13T17:57:43.855Z,90.25
2023-03-13T18:00:17.513Z,89.60
2023-03-13T18:02:44.160Z,90.64
2023-03-13T18:05:10.804Z,89.95
2023-03-13T18:07:43.944Z,89.72
2023-03-13T18:10:23.572Z,89.39
2023-03-13T18:12:51.488Z,91.15
2023-03-13T18:15:19.848Z,90.41
2023-03-13T18:17:46.795Z,91.32
2023-03-13T18:20:19.399Z,88.98
2023-03-13T18:22:46.770Z,88.53
2023-03-13T18:25:13.988Z,88.66
2023-03-13T18:27:41.284Z,88.60
2023-03-13T18:30:20.253Z,88.89
2023-03-13T18:32:47.201Z,89.17
2023-03-13T18:35:14.547Z,90.15
2023-03-13T18:37:43.758Z,90.54
2023-03-13T18:40:17.895Z,90.15
2023-03-13T18:42:44.883Z,90.09
2023-03-13T18:45:16.645Z,90.89
2023-03-13T18:47:43.342Z,90.70
2023-03-13T18:50:25.090Z,91.29
2023-03-13T18:52:55.159Z,91.58
2023-03-13T18:55:26.545Z,90.99
2023-03-13T18:57:54.437Z,90.50
2023-03-13T19:00:24.818Z,90.26
2023-03-13T19:02:51.675Z,88.89
2023-03-13T19:05:19.056Z,88.85
2023-03-13T19:07:46.785Z,89.56
2023-03-13T19:10:28.248Z,89.85
2023-03-13T19:12:56.496Z,91.97
2023-03-13T19:15:26.192Z,92.31
2023-03-13T19:17:54.082Z,90.48
2023-03-13T19:20:23.293Z,89.24
2023-03-13T19:22:50.013Z,88.39
2023-03-13T19:25:17.261Z,90.04
2023-03-13T19:27:45.069Z,91.23
2023-03-13T19:30:29.856Z,89.76
2023-03-13T19:32:56.668Z,86.64
2023-03-13T19:35:23.612Z,85.04
2023-03-13T19:37:50.338Z,83.75
2023-03-13T19:40:24.284Z,82.69
2023-03-13T19:42:51.042Z,83.34
2023-03-13T19:45:18.905Z,83.10
2023-03-13T19:47:53.391Z,82.77
2023-03-13T19:50:24.168Z,82.36
2023-03-13T19:52:51.058Z,82.98
2023-03-13T19:55:17.834Z,81.95
2023-03-13T19:57:44.600Z,82.28
2023-03-13T20:00:19.111Z,82.84
2023-03-13T20:02:46.008Z,81.72
2023-03-13T20:05:12.746Z,81.69
2023-03-13T20:07:39.576Z,82.39
2023-03-13T20:10:07.059Z,82.79
2023-03-13T20:12:35.173Z,80.95
2023-03-13T20:15:01.949Z,80.74
2023-03-13T20:17:29.925Z,81.79
2023-03-13T20:19:56.585Z,82.19
2023-03-13T20:22:23.464Z,83.19
2023-03-13T20:24:50.084Z,83.40
2023-03-13T20:27:16.980Z,82.38
2023-03-13T20:29:43.809Z,84.18
2023-03-13T20:32:11.387Z,83.07
2023-03-13T20:34:38.206Z,83.67
2023-03-13T20:37:05.437Z,83.51
2023-03-13T20:39:34.145Z,83.14
2023-03-13T20:42:03.113Z,82.07
2023-03-13T20:44:30.174Z,83.93
2023-03-13T20:46:57.610Z,82.46
2023-03-13T20:49:24.442Z,82.55
2023-03-13T20:51:51.170Z,84.41
2023-03-13T20:54:17.831Z,84.08
2023-03-13T20:56:44.498Z,85.10
2023-03-13T20:59:11.581Z,85.65
2023-03-13T21:01:38.378Z,86.47
2023-03-13T21:04:12.185Z,87.91
2023-03-13T21:06:38.945Z,88.88
2023-03-13T21:09:05.670Z,90.06
2023-03-13T21:11:33.660Z,89.43
2023-03-13T21:14:00.668Z,89.44
2023-03-13T21:16:31.598Z,89.61
2023-03-13T21:19:09.135Z,90.95
2023-03-13T21:21:35.980Z,91.39
2023-03-13T21:24:02.925Z,92.08
2023-03-13T21:26:29.724Z,92.70
2023-03-13T21:28:56.417Z,93.24
2023-03-13T21:31:23.200Z,93.80
2023-03-13T21:33:50.386Z,94.47
2023-03-13T21:36:20.872Z,94.57
2023-03-13T21:38:49.416Z,96.45
2023-03-13T21:41:19.056Z,97.44
2023-03-13T21:43:48.694Z,97.28
2023-03-13T21:46:25.280Z,97.35
2023-03-13T21:48:53.015Z,97.77
2023-03-13T21:51:19.867Z,96.80
2023-03-13T21:53:49.886Z,97.90
2023-03-13T21:56:17.258Z,97.71
2023-03-13T21:58:45.411Z,99.21
2023-03-13T22:01:13.658Z,98.74
2023-03-13T22:03:41.081Z,97.84
2023-03-13T22:06:22.529Z,98.63
2023-03-13T22:08:50.896Z,98.63
2023-03-13T22:11:18.393Z,99.01
2023-03-13T22:13:45.122Z,99.38
2023-03-13T22:16:14.989Z,99.92
2023-03-13T22:18:44.733Z,100.00
2023-03-13T22:21:11.776Z,100.00
2023-03-13T22:23:38.929Z,100.00
2023-03-13T22:26:06.120Z,100.00
2023-03-13T22:28:33.013Z,100.00
2023-03-13T22:31:01.294Z,100.00
2023-03-13T22:33:28.086Z,100.00
2023-03-13T22:35:54.867Z,100.00
2023-03-13T22:38:22.072Z,100.00
2023-03-13T22:40:57.285Z,100.00
2023-03-13T22:43:23.942Z,100.00
2023-03-13T22:45:50.631Z,100.00
2023-03-13T22:48:17.609Z,100.00
2023-03-13T22:50:44.365Z,100.00
2023-03-13T22:53:11.484Z,100.00
2023-03-13T22:55:38.095Z,100.00
2023-03-13T22:58:05.510Z,100.00
2023-03-13T23:00:32.690Z,100.00
2023-03-13T23:02:59.358Z,100.00
2023-03-13T23:05:26.087Z,100.00
2023-03-13T23:07:52.697Z,100.00
2023-03-13T23:10:19.538Z,100.00
2023-03-13T23:12:46.146Z,100.00
2023-03-13T23:15:12.911Z,100.00
2023-03-13T23:17:39.712Z,100.00
2023-03-13T23:20:16.196Z,99.42
2023-03-13T23:22:44.767Z,100.00
2023-03-13T23:25:12.813Z,99.46
2023-03-13T23:27:40.908Z,99.95
2023-03-13T23:30:14.894Z,99.28
2023-03-13T23:32:44.502Z,98.14
2023-03-13T23:35:12.846Z,98.48
2023-03-13T23:37:39.849Z,98.36
2023-03-13T23:40:08.458Z,98.16
2023-03-13T23:42:35.244Z,97.62
2023-03-13T23:45:05.672Z,98.02
2023-03-13T23:47:33.272Z,98.20
2023-03-13T23:49:59.983Z,97.98
2023-03-13T23:52:26.753Z,98.23
2023-03-13T23:54:53.613Z,98.26
2023-03-13T23:57:20.225Z,97.65
2023-03-13T23:59:46.938Z,97.49
